Time;durP1;ratioP1;P1;durP2;ratioP2;P2;SDS_P1;SDS_P2;PMS_P1;PMS_P2;Temp;Humidity;BMP_temperature;BMP_pressure;BME280_temperature;BME280_humidity;BME280_pressure;Samples;Min_cycle;Max_cycle;Signal;HPM_P1;HPM_P2
2023/04/28 00:02:00;;;;;;;37.33;13.10;;;;;;;;;;5034836;28;20029;-74
2023/04/28 00:04:25;;;;;;;27.83;12.30;;;;;;;;;;5035180;28;20048;-74
2023/04/28 00:06:51;;;;;;;26.87;12.03;;;;;;;;;;5053328;28;20035;-73
2023/04/28 00:09:17;;;;;;;22.57;12.20;;;;;;;;;;5034852;28;20024;-73
2023/04/28 00:11:46;;;;;;;25.80;11.67;;;;;;;;;;5033897;28;20480;-73
2023/04/28 00:14:13;;;;;;;25.33;11.90;;;;;;;;;;5051940;28;20037;-73
2023/04/28 00:16:38;;;;;;;26.03;11.53;;;;;;;;;;5051759;28;20064;-73
2023/04/28 00:19:04;;;;;;;30.73;13.10;;;;;;;;;;5051616;28;20594;-73
2023/04/28 00:21:29;;;;;;;33.97;12.83;;;;;;;;;;5051437;28;20056;-74
2023/04/28 00:23:55;;;;;;;30.50;11.20;;;;;;;;;;5051664;28;20358;-73
2023/04/28 00:26:20;;;;;;;29.63;11.97;;;;;;;;;;5033210;28;20037;-74
2023/04/28 00:28:46;;;;;;;26.30;11.60;;;;;;;;;;5051494;28;20043;-74
2023/04/28 00:31:12;;;;;;;22.17;10.53;;;;;;;;;;5051485;28;20025;-73
2023/04/28 00:33:42;;;;;;;25.10;10.93;;;;;;;;;;5033520;28;20064;-74
2023/04/28 00:36:09;;;;;;;21.60;11.00;;;;;;;;;;5051946;28;20454;-73
2023/04/28 00:38:35;;;;;;;27.80;10.73;;;;;;;;;;5033199;28;20025;-74
2023/04/28 00:41:02;;;;;;;26.60;10.60;;;;;;;;;;5051250;28;20500;-73
2023/04/28 00:43:27;;;;;;;22.53;9.73;;;;;;;;;;5051474;28;20028;-74
2023/04/28 00:45:53;;;;;;;29.87;11.20;;;;;;;;;;5052534;28;20040;-72
2023/04/28 00:48:19;;;;;;;23.93;10.30;;;;;;;;;;5035016;28;20055;-73
2023/04/28 00:50:46;;;;;;;20.53;10.93;;;;;;;;;;5052409;28;20048;-73
2023/04/28 00:53:12;;;;;;;18.23;10.30;;;;;;;;;;5034216;28;20119;-74
2023/04/28 00:55:38;;;;;;;27.27;10.63;;;;;;;;;;5033824;28;20036;-74
2023/04/28 00:58:05;;;;;;;20.13;10.67;;;;;;;;;;5051120;28;20025;-76
2023/04/28 01:00:31;;;;;;;20.97;10.37;;;;;;;;;;5032585;28;20039;-73
2023/04/28 01:02:57;;;;;;;19.40;11.23;;;;;;;;;;5032724;28;20032;-74
2023/04/28 01:05:25;;;;;;;22.63;11.23;;;;;;;;;;5050980;28;20075;-75
2023/04/28 01:07:52;;;;;;;26.43;11.30;;;;;;;;;;5033212;28;20068;-74
2023/04/28 01:10:18;;;;;;;23.60;10.57;;;;;;;;;;5050303;28;20029;-74
2023/04/28 01:12:44;;;;;;;22.23;10.90;;;;;;;;;;5031794;28;20190;-74
2023/04/28 01:15:15;;;;;;;21.53;10.80;;;;;;;;;;5050176;28;20540;-74
2023/04/28 01:17:41;;;;;;;23.13;11.43;;;;;;;;;;5050106;28;20040;-74
2023/04/28 01:20:07;;;;;;;29.47;12.33;;;;;;;;;;5032111;28;20144;-75
2023/04/28 01:22:33;;;;;;;26.53;12.00;;;;;;;;;;5032081;28;20025;-73
2023/04/28 01:24:59;;;;;;;19.90;10.23;;;;;;;;;;5032343;28;20032;-73
2023/04/28 01:27:24;;;;;;;19.77;11.03;;;;;;;;;;5049770;28;20057;-73
2023/04/28 01:29:50;;;;;;;23.13;11.47;;;;;;;;;;5031963;28;20060;-73
2023/04/28 01:32:15;;;;;;;26.33;11.17;;;;;;;;;;5028759;28;20049;-73
2023/04/28 01:34:41;;;;;;;26.20;11.17;;;;;;;;;;5028881;28;20132;-73
2023/04/28 01:37:06;;;;;;;22.50;11.27;;;;;;;;;;5029197;28;20018;-73
2023/04/28 01:39:32;;;;;;;22.67;11.07;;;;;;;;;;5030336;28;20032;-73
2023/04/28 01:41:57;;;;;;;25.80;12.10;;;;;;;;;;5030523;28;20032;-73
2023/04/28 01:44:23;;;;;;;24.43;12.40;;;;;;;;;;5030654;28;20615;-73
2023/04/28 01:46:48;;;;;;;24.50;12.13;;;;;;;;;;5030410;28;20041;-73
2023/04/28 01:49:14;;;;;;;28.33;12.47;;;;;;;;;;5029284;28;20029;-73
2023/04/28 01:51:41;;;;;;;30.77;13.47;;;;;;;;;;5030452;28;20025;-73
2023/04/28 01:54:07;;;;;;;25.77;13.20;;;;;;;;;;5031752;28;20385;-73
2023/04/28 01:56:32;;;;;;;24.57;12.93;;;;;;;;;;5036281;28;20128;-74
2023/04/28 01:58:58;;;;;;;22.67;12.37;;;;;;;;;;5033577;28;20055;-73
2023/04/28 02:01:23;;;;;;;28.03;13.10;;;;;;;;;;5032808;28;20156;-73
2023/04/28 02:03:49;;;;;;;29.17;12.83;;;;;;;;;;5028290;28;20061;-73
2023/04/28 02:06:14;;;;;;;27.90;11.67;;;;;;;;;;5028568;28;20029;-73
2023/04/28 02:08:40;;;;;;;33.40;13.57;;;;;;;;;;5028443;28;20052;-73
2023/04/28 02:11:05;;;;;;;21.77;11.80;;;;;;;;;;5030522;28;20056;-73
2023/04/28 02:13:31;;;;;;;21.43;12.80;;;;;;;;;;5028664;28;20033;-74
2023/04/28 02:16:00;;;;;;;23.67;12.17;;;;;;;;;;5029687;28;20397;-74
2023/04/28 02:18:26;;;;;;;27.67;12.73;;;;;;;;;;5028737;28;20482;-73
2023/04/28 02:20:51;;;;;;;24.50;10.97;;;;;;;;;;5028391;28;20072;-74
2023/04/28 02:23:17;;;;;;;22.97;12.40;;;;;;;;;;5028550;28;20432;-74
2023/04/28 02:25:42;;;;;;;27.23;11.63;;;;;;;;;;5029709;28;20033;-73
2023/04/28 02:28:08;;;;;;;23.63;12.27;;;;;;;;;;5029779;28;20378;-73
2023/04/28 02:30:33;;;;;;;20.30;12.07;;;;;;;;;;5028681;28;20026;-73
2023/04/28 02:32:58;;;;;;;28.97;13.23;;;;;;;;;;5028302;28;20175;-73
2023/04/28 02:35:24;;;;;;;22.97;12.07;;;;;;;;;;5030197;28;20369;-75
2023/04/28 02:37:50;;;;;;;26.80;12.50;;;;;;;;;;5029833;28;20194;-75
2023/04/28 02:40:15;;;;;;;24.20;11.13;;;;;;;;;;5028334;28;20029;-75
2023/04/28 02:42:41;;;;;;;29.47;11.90;;;;;;;;;;5028648;28;20878;-74
2023/04/28 02:45:07;;;;;;;22.70;12.27;;;;;;;;;;5031565;28;20033;-75
2023/04/28 02:47:32;;;;;;;26.93;12.80;;;;;;;;;;5033512;28;20021;-74
2023/04/28 02:49:58;;;;;;;24.77;12.43;;;;;;;;;;5032571;28;20469;-75
2023/04/28 02:52:23;;;;;;;20.87;12.50;;;;;;;;;;5034887;28;20045;-72
2023/04/28 02:54:53;;;;;;;30.07;12.17;;;;;;;;;;5034917;28;20052;-73
2023/04/28 02:57:19;;;;;;;23.33;11.63;;;;;;;;;;5034282;28;20032;-73
2023/04/28 02:59:45;;;;;;;27.80;13.13;;;;;;;;;;5034204;28;20025;-73
2023/04/28 03:02:11;;;;;;;27.87;11.73;;;;;;;;;;5034724;28;20026;-73
2023/04/28 03:04:37;;;;;;;19.97;11.20;;;;;;;;;;5032721;28;20053;-74
2023/04/28 03:07:02;;;;;;;21.10;12.17;;;;;;;;;;5031838;28;20097;-73
2023/04/28 03:09:28;;;;;;;22.30;12.03;;;;;;;;;;5033090;28;20033;-73
2023/04/28 03:11:53;;;;;;;23.30;11.83;;;;;;;;;;5031384;28;20017;-74
2023/04/28 03:14:18;;;;;;;22.10;11.97;;;;;;;;;;5033113;28;20500;-73
2023/04/28 03:16:44;;;;;;;22.67;11.93;;;;;;;;;;5031642;28;20104;-74
2023/04/28 03:19:10;;;;;;;25.27;11.83;;;;;;;;;;5032991;28;20458;-74
2023/04/28 03:21:35;;;;;;;24.53;11.33;;;;;;;;;;5031374;28;20091;-74
2023/04/28 03:24:01;;;;;;;31.73;13.60;;;;;;;;;;5032957;28;20021;-73
2023/04/28 03:26:26;;;;;;;25.47;13.10;;;;;;;;;;5033108;28;20029;-73
2023/04/28 03:28:52;;;;;;;27.77;12.60;;;;;;;;;;5032683;28;20093;-74
2023/04/28 03:31:17;;;;;;;24.80;12.83;;;;;;;;;;5031453;28;20370;-74
2023/04/28 03:33:44;;;;;;;30.47;12.83;;;;;;;;;;5031031;28;20053;-73
2023/04/28 03:36:10;;;;;;;23.43;12.90;;;;;;;;;;5031254;28;20068;-73
2023/04/28 03:38:35;;;;;;;32.27;14.53;;;;;;;;;;5031265;28;20018;-72
2023/04/28 03:41:01;;;;;;;26.33;13.17;;;;;;;;;;5032966;28;20425;-74
2023/04/28 03:43:26;;;;;;;29.73;13.73;;;;;;;;;;5031670;28;20474;-74
2023/04/28 03:45:52;;;;;;;31.07;15.43;;;;;;;;;;5031501;28;20140;-74
2023/04/28 03:48:17;;;;;;;28.97;16.13;;;;;;;;;;5031285;28;20144;-74
2023/04/28 03:50:44;;;;;;;26.10;14.63;;;;;;;;;;5032499;28;20482;-74
2023/04/28 03:53:10;;;;;;;30.97;16.37;;;;;;;;;;5031140;28;20121;-74
2023/04/28 03:55:35;;;;;;;34.63;15.57;;;;;;;;;;5031191;28;20026;-74
2023/04/28 03:58:01;;;;;;;30.77;15.57;;;;;;;;;;5032252;28;20014;-74
2023/04/28 04:00:27;;;;;;;30.93;15.73;;;;;;;;;;5030437;28;20029;-74
2023/04/28 04:02:52;;;;;;;28.37;15.63;;;;;;;;;;5030203;28;20025;-74
2023/04/28 04:05:18;;;;;;;33.07;17.47;;;;;;;;;;5032049;28;20083;-74
2023/04/28 04:07:43;;;;;;;29.70;17.00;;;;;;;;;;5030816;28;20462;-74
2023/04/28 04:10:09;;;;;;;30.40;15.37;;;;;;;;;;5031141;28;20508;-74
2023/04/28 04:12:35;;;;;;;33.80;15.40;;;;;;;;;;5030236;28;20454;-74
2023/04/28 04:15:00;;;;;;;40.47;16.90;;;;;;;;;;5030252;28;20025;-73
2023/04/28 04:17:26;;;;;;;31.70;17.50;;;;;;;;;;5031686;28;20037;-73
2023/04/28 04:19:51;;;;;;;31.13;16.40;;;;;;;;;;5031653;28;20033;-74
2023/04/28 04:22:16;;;;;;;32.27;16.30;;;;;;;;;;5031846;28;20021;-74
2023/04/28 04:24:42;;;;;;;30.37;16.60;;;;;;;;;;5030459;28;20029;-74
2023/04/28 04:27:07;;;;;;;31.97;15.87;;;;;;;;;;5027901;28;20026;-73
2023/04/28 04:29:33;;;;;;;34.10;16.90;;;;;;;;;;5029943;28;20071;-74
2023/04/28 04:31:59;;;;;;;28.87;15.93;;;;;;;;;;5032455;28;20056;-74
2023/04/28 04:34:24;;;;;;;34.63;14.67;;;;;;;;;;5033037;28;20041;-76
2023/04/28 04:36:50;;;;;;;25.53;15.60;;;;;;;;;;5033641;28;20040;-74
2023/04/28 04:39:15;;;;;;;31.03;14.80;;;;;;;;;;5051315;28;20419;-73
2023/04/28 04:41:41;;;;;;;30.73;15.30;;;;;;;;;;5052262;28;20028;-73
2023/04/28 04:44:06;;;;;;;32.90;14.53;;;;;;;;;;5052641;28;20162;-74
2023/04/28 04:46:32;;;;;;;29.70;14.13;;;;;;;;;;5034420;28;20158;-74
2023/04/28 04:48:57;;;;;;;32.07;13.90;;;;;;;;;;5034850;28;20021;-75
2023/04/28 04:51:23;;;;;;;28.30;13.87;;;;;;;;;;5051683;28;20511;-74
2023/04/28 04:53:48;;;;;;;26.47;14.67;;;;;;;;;;5032885;28;20021;-74
2023/04/28 04:56:14;;;;;;;28.33;15.33;;;;;;;;;;5050790;28;20025;-74
2023/04/28 04:58:43;;;;;;;28.37;13.30;;;;;;;;;;5032296;28;20029;-75
2023/04/28 05:01:09;;;;;;;24.53;14.70;;;;;;;;;;5032860;28;20035;-74
2023/04/28 05:03:34;;;;;;;24.87;14.03;;;;;;;;;;5050633;28;20112;-73
2023/04/28 05:06:01;;;;;;;37.57;15.10;;;;;;;;;;5049828;28;20033;-73
2023/04/28 05:08:28;;;;;;;34.03;14.57;;;;;;;;;;5048768;28;20556;-74
2023/04/28 05:10:54;;;;;;;30.20;14.23;;;;;;;;;;5028134;28;20079;-75
2023/04/28 05:13:19;;;;;;;27.70;14.67;;;;;;;;;;5047540;28;20053;-77
2023/04/28 05:15:46;;;;;;;25.60;14.70;;;;;;;;;;5042929;28;20043;-75
2023/04/28 05:18:12;;;;;;;30.40;14.13;;;;;;;;;;5035904;28;20025;-76
2023/04/28 05:20:38;;;;;;;25.70;13.27;;;;;;;;;;5023638;28;20028;-77
2023/04/28 05:23:03;;;;;;;29.23;13.57;;;;;;;;;;5043726;28;20021;-76
2023/04/28 05:25:29;;;;;;;31.67;13.73;;;;;;;;;;5046938;28;20091;-75
2023/04/28 05:27:55;;;;;;;34.47;12.90;;;;;;;;;;5015436;28;20044;-77
2023/04/28 05:30:20;;;;;;;30.10;13.70;;;;;;;;;;5045588;28;20104;-76
2023/04/28 05:32:46;;;;;;;26.87;12.90;;;;;;;;;;5028750;28;20041;-78
2023/04/28 05:35:12;;;;;;;24.33;14.00;;;;;;;;;;5027820;28;20112;-78
2023/04/28 05:37:38;;;;;;;27.37;14.90;;;;;;;;;;5012687;28;20596;-77
2023/04/28 05:40:05;;;;;;;31.43;14.37;;;;;;;;;;5030325;28;20446;-78
2023/04/28 05:42:30;;;;;;;27.20;14.20;;;;;;;;;;5045550;28;20074;-79
2023/04/28 05:44:56;;;;;;;27.80;13.37;;;;;;;;;;5047914;28;20020;-76
2023/04/28 05:47:22;;;;;;;20.97;13.07;;;;;;;;;;5028238;28;20033;-78
2023/04/28 05:49:47;;;;;;;29.67;12.40;;;;;;;;;;5030356;28;20441;-77
2023/04/28 05:52:13;;;;;;;26.87;14.17;;;;;;;;;;5045478;28;20028;-77
2023/04/28 05:54:38;;;;;;;25.67;14.73;;;;;;;;;;5025962;28;20040;-77
2023/04/28 05:57:04;;;;;;;23.83;13.60;;;;;;;;;;5032371;28;20028;-77
2023/04/28 05:59:30;;;;;;;27.17;12.87;;;;;;;;;;5045666;28;20147;-79
2023/04/28 06:01:57;;;;;;;25.83;12.93;;;;;;;;;;5046155;28;20025;-74
2023/04/28 06:04:23;;;;;;;28.90;13.83;;;;;;;;;;5021538;28;20040;-80
2023/04/28 06:06:49;;;;;;;29.70;13.53;;;;;;;;;;5032209;28;20036;-75
2023/04/28 06:09:15;;;;;;;20.13;10.95;;;;;;;;;;5050898;28;20035;-77
2023/04/28 06:11:40;;;;;;;24.33;13.05;;;;;;;;;;5028188;28;20529;-75
2023/04/28 06:14:06;;;;;;;23.02;12.93;;;;;;;;;;5024769;28;20035;-76
2023/04/28 06:16:32;;;;;;;19.75;14.07;;;;;;;;;;5012940;28;20115;-80
2023/04/28 06:18:57;;;;;;;23.23;12.82;;;;;;;;;;5039410;28;20024;-77
2023/04/28 06:21:23;;;;;;;25.88;12.80;;;;;;;;;;5027369;28;20028;-76
2023/04/28 06:23:50;;;;;;;21.42;12.07;;;;;;;;;;5034039;28;20096;-74
2023/04/28 06:26:16;;;;;;;18.67;10.93;;;;;;;;;;5040083;28;20020;-77
2023/04/28 06:28:41;;;;;;;22.13;12.18;;;;;;;;;;5040904;28;20112;-78
2023/04/28 06:31:08;;;;;;;23.50;11.35;;;;;;;;;;5026675;28;20120;-78
2023/04/28 06:33:33;;;;;;;21.90;10.85;;;;;;;;;;5016478;28;20045;-77
2023/04/28 06:35:59;;;;;;;24.08;11.93;;;;;;;;;;5020343;28;20087;-77
2023/04/28 06:38:24;;;;;;;23.65;11.25;;;;;;;;;;5017888;28;20026;-76
2023/04/28 06:40:50;;;;;;;22.35;11.20;;;;;;;;;;5016989;28;20128;-76
2023/04/28 06:43:16;;;;;;;22.98;10.65;;;;;;;;;;5015452;28;20698;-75
2023/04/28 06:45:43;;;;;;;19.95;11.38;;;;;;;;;;5014071;28;20505;-78
2023/04/28 06:48:09;;;;;;;16.95;11.38;;;;;;;;;;5018346;28;20041;-77
2023/04/28 06:50:36;;;;;;;21.42;10.35;;;;;;;;;;5034018;28;20075;-78
2023/04/28 06:53:01;;;;;;;24.73;11.98;;;;;;;;;;5017921;28;20081;-76
2023/04/28 06:55:27;;;;;;;23.38;12.52;;;;;;;;;;5014220;28;20029;-78
2023/04/28 06:57:52;;;;;;;24.55;11.57;;;;;;;;;;5016010;28;20025;-75
2023/04/28 07:00:18;;;;;;;26.83;11.20;;;;;;;;;;5005391;28;20033;-77
2023/04/28 07:02:43;;;;;;;24.30;11.25;;;;;;;;;;5012461;28;20113;-78
2023/04/28 07:05:10;;;;;;;20.08;10.98;;;;;;;;;;5012339;28;20029;-76
2023/04/28 07:07:37;;;;;;;28.48;12.13;;;;;;;;;;5016973;28;20033;-75
2023/04/28 07:10:04;;;;;;;80.32;20.45;;;;;;;;;;5015594;28;20474;-78
2023/04/28 07:12:31;;;;;;;20.42;11.27;;;;;;;;;;5028244;28;20371;-79
2023/04/28 07:14:56;;;;;;;22.17;10.77;;;;;;;;;;5014689;28;20026;-76
2023/04/28 07:17:22;;;;;;;20.10;11.50;;;;;;;;;;5033407;28;20666;-76
2023/04/28 07:19:49;;;;;;;24.42;10.80;;;;;;;;;;5011298;28;20044;-77
2023/04/28 07:22:15;;;;;;;22.63;10.90;;;;;;;;;;5014756;28;20042;-76
2023/04/28 07:24:41;;;;;;;22.70;11.77;;;;;;;;;;5017848;28;20610;-79
2023/04/28 07:27:07;;;;;;;21.63;9.80;;;;;;;;;;5015660;28;20037;-76
2023/04/28 07:29:33;;;;;;;19.75;10.70;;;;;;;;;;5015479;28;20029;-75
2023/04/28 07:32:07;;;;;;;20.75;10.43;;;;;;;;;;5016656;28;20148;-75
2023/04/28 07:34:34;;;;;;;22.83;11.30;;;;;;;;;;5037885;28;20032;-75
2023/04/28 07:37:01;;;;;;;19.08;11.00;;;;;;;;;;5020046;28;20035;-76
2023/04/28 07:39:26;;;;;;;17.10;9.88;;;;;;;;;;5038315;28;20032;-76
2023/04/28 07:41:52;;;;;;;17.67;9.50;;;;;;;;;;5014896;28;20061;-75
2023/04/28 07:44:18;;;;;;;19.83;9.55;;;;;;;;;;5012674;28;20031;-79
2023/04/28 07:46:47;;;;;;;19.80;10.10;;;;;;;;;;5036251;28;20025;-81
2023/04/28 07:49:12;;;;;;;21.05;10.32;;;;;;;;;;5020978;28;20040;-76
2023/04/28 07:51:38;;;;;;;19.02;11.27;;;;;;;;;;5025105;28;20488;-76
2023/04/28 07:54:03;;;;;;;18.65;9.43;;;;;;;;;;5040598;28;20108;-75
2023/04/28 07:56:31;;;;;;;19.55;9.90;;;;;;;;;;5044497;28;20520;-77
2023/04/28 07:58:56;;;;;;;19.10;10.07;;;;;;;;;;5036034;28;20033;-77
2023/04/28 08:01:22;;;;;;;19.00;10.38;;;;;;;;;;5035799;28;20064;-78
2023/04/28 08:03:48;;;;;;;19.98;9.82;;;;;;;;;;5046142;28;20024;-78
2023/04/28 08:06:15;;;;;;;20.33;10.75;;;;;;;;;;5029868;28;20037;-79
2023/04/28 08:08:40;;;;;;;19.52;10.63;;;;;;;;;;5022306;28;20037;-76
2023/04/28 08:11:07;;;;;;;18.55;9.93;;;;;;;;;;5019822;28;20063;-77
2023/04/28 08:13:33;;;;;;;22.33;10.15;;;;;;;;;;5034283;28;20568;-75
2023/04/28 08:16:00;;;;;;;22.40;9.65;;;;;;;;;;5024834;28;20480;-76
2023/04/28 08:18:26;;;;;;;23.58;10.43;;;;;;;;;;5049273;28;20025;-76
2023/04/28 08:20:52;;;;;;;18.33;9.65;;;;;;;;;;5032331;28;20524;-76
2023/04/28 08:23:19;;;;;;;24.52;10.82;;;;;;;;;;5028386;28;20130;-79
2023/04/28 08:25:46;;;;;;;23.85;11.10;;;;;;;;;;5049719;28;20036;-76
2023/04/28 08:28:13;;;;;;;26.98;12.20;;;;;;;;;;5039946;28;20377;-76
2023/04/28 08:30:39;;;;;;;17.42;10.68;;;;;;;;;;5024853;28;20250;-75
2023/04/28 08:33:05;;;;;;;22.80;11.13;;;;;;;;;;5022956;28;20054;-74
2023/04/28 08:35:30;;;;;;;18.10;10.68;;;;;;;;;;5019189;28;20037;-77
2023/04/28 08:37:56;;;;;;;21.30;11.20;;;;;;;;;;5015208;28;20033;-76
2023/04/28 08:40:23;;;;;;;20.08;11.27;;;;;;;;;;5019133;28;20053;-77
2023/04/28 08:42:53;;;;;;;19.35;10.43;;;;;;;;;;5010715;28;20033;-76
2023/04/28 08:45:22;;;;;;;17.08;11.00;;;;;;;;;;5013849;28;20201;-75
2023/04/28 08:47:48;;;;;;;26.80;10.95;;;;;;;;;;5020051;28;20056;-76
2023/04/28 08:50:21;;;;;;;20.42;10.32;;;;;;;;;;5016553;28;20030;-75
2023/04/28 08:52:47;;;;;;;18.17;10.07;;;;;;;;;;5016298;28;20804;-74
2023/04/28 08:55:15;;;;;;;17.40;9.35;;;;;;;;;;5025057;28;20037;-75
2023/04/28 08:57:43;;;;;;;20.25;10.68;;;;;;;;;;5020931;28;20064;-76
2023/04/28 09:00:09;;;;;;;23.13;10.68;;;;;;;;;;5020588;28;20033;-76
2023/04/28 09:02:41;;;;;;;27.20;10.65;;;;;;;;;;5016760;28;21289;-76
2023/04/28 09:05:07;;;;;;;27.55;13.93;;;;;;;;;;5016431;28;20030;-76
2023/04/28 09:07:34;;;;;;;16.30;8.80;;;;;;;;;;5018289;28;20652;-77
2023/04/28 09:10:15;;;;;;;20.90;9.10;;;;;;;;;;5024917;28;20037;-78
2023/04/28 09:12:41;;;;;;;14.18;8.50;;;;;;;;;;5020903;28;20660;-73
2023/04/28 09:15:08;;;;;;;14.50;7.72;;;;;;;;;;5028594;28;20116;-73
2023/04/28 09:17:55;;;;;;;19.00;9.35;;;;;;;;;;5018962;28;20918;-74
2023/04/28 09:20:23;;;;;;;20.63;8.07;;;;;;;;;;5016240;28;20293;-75
2023/04/28 09:22:50;;;;;;;20.88;7.40;;;;;;;;;;5020330;28;20037;-73
2023/04/28 09:25:17;;;;;;;14.32;7.90;;;;;;;;;;5011863;28;20033;-76
2023/04/28 09:27:43;;;;;;;14.60;7.38;;;;;;;;;;5026626;28;20033;-75
2023/04/28 09:30:09;;;;;;;18.80;7.68;;;;;;;;;;5032016;28;20049;-74
2023/04/28 09:32:36;;;;;;;16.00;8.18;;;;;;;;;;5028816;28;20060;-75
2023/04/28 09:35:03;;;;;;;17.65;7.80;;;;;;;;;;5039061;28;20072;-74
2023/04/28 09:37:32;;;;;;;17.85;7.43;;;;;;;;;;5040903;28;20913;-74
2023/04/28 09:40:09;;;;;;;11.05;6.65;;;;;;;;;;5030384;28;20037;-75
2023/04/28 09:42:37;;;;;;;10.50;6.72;;;;;;;;;;4998765;28;20040;-76
2023/04/28 09:45:13;;;;;;;13.88;6.40;;;;;;;;;;5020161;28;20037;-73
2023/04/28 09:47:44;;;;;;;14.30;5.82;;;;;;;;;;5026108;28;20029;-76
2023/04/28 09:50:15;;;;;;;9.55;5.50;;;;;;;;;;5036997;28;20083;-75
2023/04/28 09:52:44;;;;;;;11.38;5.40;;;;;;;;;;5008522;28;20561;-75
2023/04/28 09:55:12;;;;;;;8.75;4.05;;;;;;;;;;5017740;28;20442;-77
2023/04/28 09:57:39;;;;;;;8.80;4.53;;;;;;;;;;5003853;28;20035;-77
2023/04/28 10:00:07;;;;;;;8.98;4.03;;;;;;;;;;5038922;28;20032;-77
2023/04/28 10:02:37;;;;;;;10.02;4.93;;;;;;;;;;5038259;28;20037;-78
2023/04/28 10:05:07;;;;;;;11.25;4.82;;;;;;;;;;5024172;28;20513;-75
2023/04/28 10:07:37;;;;;;;16.70;6.80;;;;;;;;;;5021438;28;20032;-77
2023/04/28 10:10:04;;;;;;;11.75;7.25;;;;;;;;;;5036340;28;20025;-76
2023/04/28 10:12:31;;;;;;;16.45;6.45;;;;;;;;;;5018577;28;20072;-77
2023/04/28 10:14:58;;;;;;;10.63;6.97;;;;;;;;;;5036926;28;20045;-76
2023/04/28 10:17:26;;;;;;;11.45;6.72;;;;;;;;;;5048037;28;20044;-76
2023/04/28 10:19:53;;;;;;;12.68;6.63;;;;;;;;;;5013134;28;20487;-77
2023/04/28 10:22:44;;;;;;;15.48;6.63;;;;;;;;;;5041035;28;20044;-77
2023/04/28 10:25:14;;;;;;;9.95;5.72;;;;;;;;;;5056479;28;20043;-78
2023/04/28 10:27:46;;;;;;;13.88;5.95;;;;;;;;;;5067124;28;20121;-78
2023/04/28 10:30:24;;;;;;;11.10;5.90;;;;;;;;;;5041044;28;20088;-78
2023/04/28 10:33:14;;;;;;;13.00;5.90;;;;;;;;;;5015040;28;20119;-77
2023/04/28 10:35:43;;;;;;;9.93;5.68;;;;;;;;;;4997525;28;20065;-78
2023/04/28 10:38:12;;;;;;;19.40;6.35;;;;;;;;;;4992540;28;20087;-77
2023/04/28 10:40:41;;;;;;;11.82;6.10;;;;;;;;;;4997547;28;20355;-76
2023/04/28 10:43:12;;;;;;;4.88;4.32;;;;;;;;;;4994686;28;20063;-76
2023/04/28 10:46:04;;;;;;;13.63;4.68;;;;;;;;;;4987684;28;20026;-74
2023/04/28 10:48:49;;;;;;;8.82;4.43;;;;;;;;;;5009165;28;20025;-75
2023/04/28 10:51:17;;;;;;;8.07;4.85;;;;;;;;;;4999140;28;20049;-76
2023/04/28 10:53:43;;;;;;;6.20;3.95;;;;;;;;;;4992114;28;20022;-77
2023/04/28 10:56:21;;;;;;;8.68;4.47;;;;;;;;;;4997684;28;20564;-77
2023/04/28 10:58:49;;;;;;;7.20;3.92;;;;;;;;;;4992452;28;20042;-75
2023/04/28 11:01:20;;;;;;;7.10;3.30;;;;;;;;;;4994993;28;20120;-76
2023/04/28 11:03:50;;;;;;;8.40;2.80;;;;;;;;;;4993121;28;20022;-78
2023/04/28 11:07:07;;;;;;;11.60;4.53;;;;;;;;;;4995805;28;20038;-75
2023/04/28 11:09:33;;;;;;;4.80;3.20;;;;;;;;;;4997540;28;20084;-77
2023/04/28 11:11:59;;;;;;;8.93;3.78;;;;;;;;;;4996271;28;20121;-77
2023/04/28 11:14:32;;;;;;;7.70;2.60;;;;;;;;;;4995879;28;20033;-78
2023/04/28 11:17:03;;;;;;;6.15;3.78;;;;;;;;;;4994306;28;20548;-74
2023/04/28 11:19:44;;;;;;;4.77;2.50;;;;;;;;;;4999343;28;20692;-76
2023/04/28 11:22:18;;;;;;;7.95;3.35;;;;;;;;;;5012597;28;20033;-75
2023/04/28 11:25:01;;;;;;;6.20;3.25;;;;;;;;;;4992091;28;20074;-76
2023/04/28 11:27:32;;;;;;;7.60;3.65;;;;;;;;;;5013183;28;20509;-75
2023/04/28 11:29:58;;;;;;;5.47;2.90;;;;;;;;;;5001243;28;20491;-75
2023/04/28 11:32:32;;;;;;;9.52;3.72;;;;;;;;;;4968425;28;20049;-77
2023/04/28 11:35:00;;;;;;;7.18;2.75;;;;;;;;;;5018194;28;20609;-78
2023/04/28 11:37:26;;;;;;;6.53;3.63;;;;;;;;;;5018675;28;20702;-74
2023/04/28 11:39:51;;;;;;;7.38;3.58;;;;;;;;;;5031555;28;20029;-75
2023/04/28 11:42:17;;;;;;;8.82;3.78;;;;;;;;;;5013792;28;20825;-76
2023/04/28 11:44:53;;;;;;;7.95;4.03;;;;;;;;;;5010149;28;20040;-73
2023/04/28 11:47:30;;;;;;;4.90;3.10;;;;;;;;;;5015527;28;20061;-75
2023/04/28 11:49:57;;;;;;;3.75;2.90;;;;;;;;;;5014771;28;20044;-76
2023/04/28 11:52:26;;;;;;;8.07;4.38;;;;;;;;;;5013715;28;20760;-79
2023/04/28 11:54:56;;;;;;;10.85;3.20;;;;;;;;;;5016299;28;20030;-77
2023/04/28 11:57:24;;;;;;;6.95;3.83;;;;;;;;;;5018636;28;20481;-78
2023/04/28 11:59:50;;;;;;;14.27;3.67;;;;;;;;;;5016529;28;20029;-78
2023/04/28 12:02:28;;;;;;;7.50;3.22;;;;;;;;;;5034237;28;20030;-76
2023/04/28 12:04:54;;;;;;;5.30;3.42;;;;;;;;;;5036483;28;20036;-79
2023/04/28 12:07:20;;;;;;;8.73;3.15;;;;;;;;;;5037503;28;20041;-79
2023/04/28 12:10:15;;;;;;;4.85;3.40;;;;;;;;;;5020258;28;20029;-75
2023/04/28 12:12:41;;;;;;;8.55;3.65;;;;;;;;;;5018314;28;20575;-76
2023/04/28 12:15:14;;;;;;;5.85;3.20;;;;;;;;;;5014706;28;20025;-75
2023/04/28 12:17:42;;;;;;;6.20;3.75;;;;;;;;;;5014399;28;20021;-75
2023/04/28 12:20:10;;;;;;;6.22;3.40;;;;;;;;;;5012102;28;20113;-75
2023/04/28 12:22:48;;;;;;;7.78;3.35;;;;;;;;;;4996216;28;20056;-76
2023/04/28 12:25:18;;;;;;;6.72;3.75;;;;;;;;;;5016994;28;20029;-76
2023/04/28 12:28:03;;;;;;;5.65;3.35;;;;;;;;;;5024298;28;20587;-78
2023/04/28 12:30:43;;;;;;;7.32;3.67;;;;;;;;;;5008877;28;20088;-78
2023/04/28 12:33:26;;;;;;;7.80;3.85;;;;;;;;;;5018787;28;20085;-76
2023/04/28 12:35:55;;;;;;;14.00;4.18;;;;;;;;;;5016134;28;20133;-76
2023/04/28 12:38:47;;;;;;;14.10;7.68;;;;;;;;;;5019086;28;20418;-76
2023/04/28 12:41:18;;;;;;;6.72;4.10;;;;;;;;;;5021997;28;20549;-77
2023/04/28 12:43:43;;;;;;;7.43;3.17;;;;;;;;;;5021251;28;20029;-74
2023/04/28 12:46:13;;;;;;;9.40;4.43;;;;;;;;;;5019575;28;20031;-79
2023/04/28 12:48:39;;;;;;;6.85;4.25;;;;;;;;;;5024018;28;20375;-77
2023/04/28 12:51:05;;;;;;;7.13;3.95;;;;;;;;;;5030152;28;20036;-76
2023/04/28 12:53:30;;;;;;;5.82;4.38;;;;;;;;;;5016348;28;20037;-74
2023/04/28 12:55:56;;;;;;;11.45;4.97;;;;;;;;;;5024633;28;20033;-75
2023/04/28 12:58:21;;;;;;;8.82;4.60;;;;;;;;;;5040939;28;20420;-76
2023/04/28 13:00:47;;;;;;;6.60;4.93;;;;;;;;;;5031958;28;20042;-74
2023/04/28 13:03:14;;;;;;;9.30;4.90;;;;;;;;;;5018303;28;20033;-77
2023/04/28 13:05:41;;;;;;;5.82;4.32;;;;;;;;;;5028619;28;20041;-76
2023/04/28 13:08:08;;;;;;;20.17;5.22;;;;;;;;;;5021457;28;20585;-77
2023/04/28 13:10:33;;;;;;;5.82;4.30;;;;;;;;;;5026950;28;20087;-78
2023/04/28 13:13:00;;;;;;;6.93;3.97;;;;;;;;;;5023900;28;20029;-79
2023/04/28 13:15:27;;;;;;;11.43;4.50;;;;;;;;;;5028824;28;20120;-81
2023/04/28 13:17:58;;;;;;;12.30;5.53;;;;;;;;;;5026538;28;20136;-78
2023/04/28 13:20:24;;;;;;;6.13;4.60;;;;;;;;;;5039092;28;20037;-77
2023/04/28 13:22:51;;;;;;;9.60;4.97;;;;;;;;;;5019474;28;20040;-77
2023/04/28 13:25:16;;;;;;;8.43;4.07;;;;;;;;;;5024947;28;20029;-76
2023/04/28 13:27:42;;;;;;;8.80;5.20;;;;;;;;;;5018312;28;20378;-75
2023/04/28 13:30:10;;;;;;;10.50;4.78;;;;;;;;;;5021256;28;20180;-78
2023/04/28 13:32:35;;;;;;;12.70;4.55;;;;;;;;;;5017449;28;20051;-77
2023/04/28 13:35:01;;;;;;;10.50;5.13;;;;;;;;;;5023941;28;20553;-78
2023/04/28 13:37:26;;;;;;;12.02;5.90;;;;;;;;;;5018206;28;20029;-77
2023/04/28 13:39:52;;;;;;;10.38;5.93;;;;;;;;;;5039658;28;20025;-77
2023/04/28 13:42:17;;;;;;;11.82;4.72;;;;;;;;;;5024576;28;20033;-79
2023/04/28 13:44:43;;;;;;;7.63;4.38;;;;;;;;;;5022007;28;20026;-77
2023/04/28 13:47:09;;;;;;;9.88;5.63;;;;;;;;;;5025996;28;20487;-78
2023/04/28 13:49:36;;;;;;;9.93;6.22;;;;;;;;;;5025241;28;20056;-78
2023/04/28 13:52:02;;;;;;;10.27;5.57;;;;;;;;;;5028205;28;20495;-77
2023/04/28 13:54:27;;;;;;;9.85;6.05;;;;;;;;;;5027776;28;20025;-78
2023/04/28 13:56:53;;;;;;;11.80;5.43;;;;;;;;;;5042932;28;20036;-78
2023/04/28 13:59:19;;;;;;;12.55;5.43;;;;;;;;;;5030941;28;20100;-78
2023/04/28 14:01:45;;;;;;;6.70;4.75;;;;;;;;;;5027101;28;20144;-80
2023/04/28 14:04:11;;;;;;;7.93;5.22;;;;;;;;;;5015080;28;20041;-78
2023/04/28 14:06:37;;;;;;;12.77;5.30;;;;;;;;;;5011524;28;20041;-78
2023/04/28 14:09:03;;;;;;;10.55;4.47;;;;;;;;;;5026737;28;20041;-79
2023/04/28 14:11:29;;;;;;;16.98;6.10;;;;;;;;;;5039018;28;20087;-78
2023/04/28 14:13:54;;;;;;;10.60;5.82;;;;;;;;;;5031072;28;20026;-80
2023/04/28 14:16:20;;;;;;;12.63;5.90;;;;;;;;;;5030511;28;20049;-77
2023/04/28 14:18:46;;;;;;;9.48;4.65;;;;;;;;;;5024288;28;20079;-78
2023/04/28 14:21:11;;;;;;;5.50;4.85;;;;;;;;;;5027583;28;20028;-77
2023/04/28 14:23:38;;;;;;;8.32;4.50;;;;;;;;;;5024604;28;20733;-76
2023/04/28 14:26:03;;;;;;;9.63;5.05;;;;;;;;;;5024505;28;20044;-78